Time;durP1;ratioP1;P1;durP2;ratioP2;P2;SDS_P1;SDS_P2;PMS_P1;PMS_P2;Temp;Humidity;BMP_temperature;BMP_pressure;BME280_temperature;BME280_humidity;BME280_pressure;Samples;Min_cycle;Max_cycle;Signal;HPM_P1;HPM_P2
2024/04/03 00:01:14;;;;;;;1.20;1.10;;;11.50;99.90;;;;;;5114229;28;20536;-62
2024/04/03 00:03:40;;;;;;;3.00;1.47;;;11.60;99.90;;;;;;5114891;28;20618;-62
2024/04/03 00:06:07;;;;;;;1.37;0.90;;;11.60;99.90;;;;;;5114847;28;20540;-62
2024/04/03 00:08:32;;;;;;;1.20;1.10;;;11.60;99.90;;;;;;5114725;28;20188;-62
2024/04/03 00:10:59;;;;;;;4.77;1.33;;;11.70;99.90;;;;;;5114602;28;20458;-62
2024/04/03 00:13:25;;;;;;;2.03;1.10;;;11.60;99.90;;;;;;5114769;28;20271;-62
2024/04/03 00:15:52;;;;;;;1.37;1.03;;;11.50;99.90;;;;;;5114754;28;20496;-62
2024/04/03 00:18:18;;;;;;;2.60;1.50;;;11.50;99.90;;;;;;5114660;28;20445;-62
2024/04/03 00:20:44;;;;;;;1.10;0.90;;;11.50;99.90;;;;;;5114460;28;20478;-62
2024/04/03 00:23:10;;;;;;;2.93;1.20;;;11.50;99.90;;;;;;5114499;28;20187;-62
2024/04/03 00:25:36;;;;;;;1.70;1.20;;;11.50;99.90;;;;;;5114328;28;20545;-62
2024/04/03 00:28:02;;;;;;;1.47;1.17;;;11.50;99.90;;;;;;5114393;28;20230;-63
2024/04/03 00:30:30;;;;;;;1.40;1.30;;;11.60;99.90;;;;;;5114404;28;20567;-62
2024/04/03 00:32:56;;;;;;;1.50;1.10;;;11.60;99.90;;;;;;5114362;28;20480;-63
2024/04/03 00:35:22;;;;;;;3.33;1.40;;;11.50;99.90;;;;;;5114268;28;20477;-62
2024/04/03 00:37:48;;;;;;;2.20;1.37;;;11.60;99.90;;;;;;5114171;28;20738;-63
2024/04/03 00:40:14;;;;;;;2.30;1.07;;;11.60;99.90;;;;;;5113914;28;20576;-62
2024/04/03 00:42:40;;;;;;;2.33;1.20;;;11.50;99.90;;;;;;5114349;28;20219;-62
2024/04/03 00:45:07;;;;;;;2.60;1.37;;;11.50;99.90;;;;;;5114145;28;20864;-62
2024/04/03 00:47:34;;;;;;;5.10;1.30;;;11.50;99.90;;;;;;5114017;28;20226;-63
2024/04/03 00:50:00;;;;;;;1.67;1.30;;;11.50;99.90;;;;;;5114197;28;20454;-63
2024/04/03 00:52:26;;;;;;;4.10;1.67;;;11.50;99.90;;;;;;5113867;28;20448;-62
2024/04/03 00:54:53;;;;;;;3.87;1.60;;;11.50;99.90;;;;;;5113799;28;20528;-62
2024/04/03 00:57:18;;;;;;;1.63;1.10;;;11.60;99.90;;;;;;5114110;28;20223;-62
2024/04/03 00:59:45;;;;;;;3.17;1.33;;;11.60;99.90;;;;;;5113842;28;20521;-62
2024/04/03 01:02:11;;;;;;;1.50;1.40;;;11.60;99.90;;;;;;5113774;28;20187;-63
2024/04/03 01:04:39;;;;;;;2.50;1.10;;;11.60;99.90;;;;;;5113816;28;20537;-62
2024/04/03 01:07:04;;;;;;;1.97;1.20;;;11.70;99.90;;;;;;5113679;28;20187;-62
2024/04/03 01:09:31;;;;;;;1.20;1.10;;;11.60;99.90;;;;;;5113687;28;21016;-62
2024/04/03 01:11:57;;;;;;;1.80;1.50;;;11.70;99.90;;;;;;5113837;28;20183;-64
2024/04/03 01:14:23;;;;;;;2.10;1.27;;;11.70;99.90;;;;;;5113753;28;20549;-62
2024/04/03 01:16:49;;;;;;;1.73;1.40;;;11.70;99.90;;;;;;5113700;28;20271;-62
2024/04/03 01:19:15;;;;;;;1.60;1.50;;;11.70;99.90;;;;;;5113576;28;20910;-62
2024/04/03 01:21:42;;;;;;;2.07;1.30;;;11.50;99.90;;;;;;5113580;28;20187;-64
2024/04/03 01:24:10;;;;;;;1.43;1.33;;;11.60;99.90;;;;;;5113475;28;20453;-62
2024/04/03 01:26:36;;;;;;;3.10;1.83;;;11.60;99.90;;;;;;5113649;28;20553;-63
2024/04/03 01:29:02;;;;;;;1.50;1.40;;;11.60;99.90;;;;;;5113507;28;20548;-64
2024/04/03 01:31:28;;;;;;;4.63;1.83;;;11.70;99.90;;;;;;5113459;28;20191;-64
2024/04/03 01:33:54;;;;;;;1.93;1.60;;;11.70;99.90;;;;;;5113378;28;21016;-64
2024/04/03 01:36:20;;;;;;;3.53;2.10;;;11.70;99.90;;;;;;5113316;28;20188;-63
2024/04/03 01:38:47;;;;;;;3.70;1.90;;;11.60;99.90;;;;;;5113431;28;20560;-64
2024/04/03 01:41:14;;;;;;;2.60;1.90;;;11.60;99.90;;;;;;5113439;28;20184;-64
2024/04/03 01:43:40;;;;;;;3.40;2.60;;;11.50;99.90;;;;;;5113388;28;20457;-64
2024/04/03 01:46:06;;;;;;;4.33;2.70;;;11.60;99.90;;;;;;5113242;28;20476;-64
2024/04/03 01:48:33;;;;;;;2.13;1.93;;;11.50;99.90;;;;;;5113157;28;20552;-64
2024/04/03 01:50:58;;;;;;;2.47;2.23;;;11.50;99.90;;;;;;5113090;28;20548;-64
2024/04/03 01:53:25;;;;;;;3.63;3.20;;;11.50;99.90;;;;;;5113469;28;20477;-64
2024/04/03 01:55:54;;;;;;;2.63;2.40;;;11.50;99.90;;;;;;5113132;28;20703;-63
2024/04/03 01:58:22;;;;;;;6.20;2.53;;;11.50;99.90;;;;;;5113574;28;20450;-64
2024/04/03 02:00:48;;;;;;;6.27;2.70;;;11.60;99.90;;;;;;5113143;28;20487;-64
2024/04/03 02:03:15;;;;;;;3.87;3.23;;;11.70;99.90;;;;;;5113136;28;20453;-64
2024/04/03 02:05:42;;;;;;;2.40;2.23;;;11.60;99.90;;;;;;5113595;28;20188;-63
2024/04/03 02:08:09;;;;;;;2.37;2.23;;;11.50;99.90;;;;;;5113228;28;20540;-63
2024/04/03 02:10:34;;;;;;;2.63;2.43;;;11.60;99.90;;;;;;5113157;28;20452;-63
2024/04/03 02:13:01;;;;;;;2.63;2.43;;;11.60;99.90;;;;;;5113128;28;20877;-63
2024/04/03 02:15:28;;;;;;;5.37;3.23;;;11.70;99.90;;;;;;5112993;28;20194;-63
2024/04/03 02:17:54;;;;;;;3.13;2.50;;;11.70;99.90;;;;;;5112954;28;20530;-63
2024/04/03 02:20:20;;;;;;;4.80;2.47;;;11.50;99.90;;;;;;5112840;28;20477;-63
2024/04/03 02:22:47;;;;;;;4.33;2.57;;;11.50;99.90;;;;;;5113089;28;21013;-63
2024/04/03 02:25:13;;;;;;;3.53;2.80;;;11.50;99.90;;;;;;5115491;28;20198;-63
2024/04/03 02:27:39;;;;;;;5.93;2.60;;;11.50;99.90;;;;;;5116747;28;20536;-63
2024/04/03 02:30:05;;;;;;;3.13;2.83;;;11.50;99.90;;;;;;5116684;28;20533;-63
2024/04/03 02:32:33;;;;;;;2.50;2.30;;;11.60;99.90;;;;;;5116507;27;20455;-63
2024/04/03 02:34:59;;;;;;;2.60;2.40;;;11.60;99.90;;;;;;5116770;28;20528;-63
2024/04/03 02:37:25;;;;;;;2.50;2.30;;;11.60;99.90;;;;;;5116686;28;20553;-63
2024/04/03 02:39:51;;;;;;;2.80;2.60;;;11.60;99.90;;;;;;5116546;28;20623;-63
2024/04/03 02:42:18;;;;;;;2.10;2.00;;;11.60;99.90;;;;;;5116600;28;20536;-63
2024/04/03 02:44:44;;;;;;;2.60;2.23;;;11.60;99.90;;;;;;5116391;28;20188;-63
2024/04/03 02:47:10;;;;;;;3.47;2.17;;;11.60;99.90;;;;;;5116278;28;20467;-63
2024/04/03 02:49:37;;;;;;;4.20;2.33;;;11.70;99.90;;;;;;5116596;28;20536;-63
2024/04/03 02:52:04;;;;;;;2.60;2.40;;;11.70;99.90;;;;;;5116363;28;20188;-63
2024/04/03 02:54:31;;;;;;;4.87;3.37;;;11.70;99.90;;;;;;5116343;28;20452;-63
2024/04/03 02:56:57;;;;;;;3.43;2.80;;;11.60;99.90;;;;;;5116141;28;20444;-63
2024/04/03 02:59:24;;;;;;;5.50;3.13;;;11.60;99.90;;;;;;5116097;28;20567;-63
2024/04/03 03:01:50;;;;;;;4.23;2.70;;;11.50;99.90;;;;;;5115965;28;20279;-62
2024/04/03 03:04:16;;;;;;;4.77;2.67;;;11.60;99.90;;;;;;5116174;28;20450;-63
2024/04/03 03:06:43;;;;;;;3.17;2.93;;;11.60;99.90;;;;;;5116102;28;20445;-63
2024/04/03 03:09:10;;;;;;;4.50;3.40;;;11.60;99.90;;;;;;5115923;28;20464;-63
2024/04/03 03:11:35;;;;;;;3.87;3.07;;;11.60;99.90;;;;;;5115893;28;20532;-63
2024/04/03 03:14:04;;;;;;;3.30;3.00;;;11.60;99.90;;;;;;5115901;27;20890;-63
2024/04/03 03:16:29;;;;;;;4.90;3.00;;;11.60;99.90;;;;;;5115763;28;20216;-63
2024/04/03 03:18:56;;;;;;;3.60;3.30;;;11.60;99.90;;;;;;5115969;28;20959;-63
2024/04/03 03:21:21;;;;;;;4.03;3.30;;;11.60;99.90;;;;;;5115667;28;20216;-63
2024/04/03 03:23:49;;;;;;;3.47;3.17;;;11.60;99.90;;;;;;5115688;27;20557;-63
2024/04/03 03:26:15;;;;;;;5.40;3.47;;;11.60;99.90;;;;;;5115602;28;20199;-63
2024/04/03 03:28:41;;;;;;;5.43;3.33;;;11.60;99.90;;;;;;5115589;28;20532;-63
2024/04/03 03:31:08;;;;;;;4.57;3.60;;;11.50;99.90;;;;;;5115698;28;20554;-63
2024/04/03 03:33:35;;;;;;;5.20;3.43;;;11.50;99.90;;;;;;5115665;28;20541;-63
2024/04/03 03:36:01;;;;;;;3.97;3.40;;;11.50;99.90;;;;;;5114319;28;20442;-63
2024/04/03 03:38:27;;;;;;;4.43;4.03;;;11.50;99.90;;;;;;5115458;28;20798;-63
2024/04/03 03:40:55;;;;;;;3.83;3.40;;;11.50;99.90;;;;;;5115331;28;20226;-63
2024/04/03 03:43:22;;;;;;;3.73;3.47;;;11.60;99.90;;;;;;5115178;28;20452;-63
2024/04/03 03:45:49;;;;;;;5.70;3.77;;;11.60;99.90;;;;;;5114963;28;20556;-63
2024/04/03 03:48:16;;;;;;;6.20;3.20;;;11.50;99.90;;;;;;5115417;28;20831;-63
2024/04/03 03:53:27;;;;;;;4.93;3.43;;;11.60;99.90;;;;;;5115098;28;20440;-63
2024/04/03 03:55:55;;;;;;;5.30;3.53;;;11.60;99.90;;;;;;5114923;28;20812;-63
2024/04/03 03:58:22;;;;;;;5.07;4.20;;;11.60;99.90;;;;;;5115095;28;20942;-63
2024/04/03 04:00:48;;;;;;;5.57;4.07;;;11.60;99.90;;;;;;5114927;28;21080;-63
2024/04/03 04:03:15;;;;;;;7.63;4.00;;;11.60;99.90;;;;;;5114934;28;20522;-63
2024/04/03 04:05:41;;;;;;;4.63;4.20;;;11.60;99.90;;;;;;5114900;28;20537;-63
2024/04/03 04:08:07;;;;;;;5.17;3.87;;;11.60;99.90;;;;;;5114796;28;20525;-63
2024/04/03 04:10:33;;;;;;;6.10;3.97;;;11.50;99.90;;;;;;5114658;28;20545;-63
2024/04/03 04:13:00;;;;;;;5.23;4.67;;;11.50;99.90;;;;;;5114846;28;20270;-63
2024/04/03 04:15:27;;;;;;;5.17;4.20;;;11.50;99.90;;;;;;5114815;28;20812;-63
2024/04/03 04:17:53;;;;;;;4.47;4.07;;;11.50;99.90;;;;;;5114646;28;20469;-63
2024/04/03 04:20:19;;;;;;;4.23;3.93;;;11.40;99.90;;;;;;5114362;28;20501;-63
2024/04/03 04:22:45;;;;;;;5.07;3.50;;;11.50;99.90;;;;;;5114418;28;20412;-63
2024/04/03 04:25:12;;;;;;;4.73;3.90;;;11.40;99.90;;;;;;5114273;28;20525;-63
2024/04/03 04:27:38;;;;;;;4.63;3.90;;;11.50;99.90;;;;;;5114535;28;20532;-63
2024/04/03 04:30:07;;;;;;;4.37;4.00;;;11.50;99.90;;;;;;5114446;28;20453;-63
2024/04/03 04:32:33;;;;;;;4.37;3.97;;;11.50;99.90;;;;;;5114426;28;20446;-63
2024/04/03 04:35:00;;;;;;;7.03;4.77;;;11.40;99.90;;;;;;5114237;28;20515;-63
2024/04/03 04:37:26;;;;;;;5.50;4.37;;;11.40;99.90;;;;;;5114111;28;20294;-63
2024/04/03 04:39:52;;;;;;;4.50;4.10;;;11.40;99.90;;;;;;5113984;28;20473;-63
2024/04/03 04:42:19;;;;;;;8.17;5.50;;;11.40;99.90;;;;;;5114148;28;20445;-63
2024/04/03 04:44:45;;;;;;;5.60;5.07;;;11.40;99.90;;;;;;5114078;27;20454;-62
2024/04/03 04:47:12;;;;;;;5.83;3.80;;;11.20;99.90;;;;;;5113573;28;20852;-63
2024/04/03 04:49:39;;;;;;;6.63;3.90;;;11.10;99.90;;;;;;5113892;28;20453;-63
2024/04/03 04:52:05;;;;;;;5.63;3.70;;;11.00;99.90;;;;;;5113845;28;20533;-63
2024/04/03 04:54:31;;;;;;;4.97;3.90;;;11.00;99.90;;;;;;5113775;28;20861;-63
2024/04/03 04:56:57;;;;;;;5.67;3.60;;;10.90;99.90;;;;;;5113957;28;20535;-62
2024/04/03 04:59:24;;;;;;;4.13;3.50;;;10.80;99.90;;;;;;5113904;28;20536;-63
2024/04/03 05:01:50;;;;;;;4.37;3.30;;;10.80;99.90;;;;;;5113682;28;20219;-63
2024/04/03 05:04:17;;;;;;;3.27;2.97;;;10.80;99.90;;;;;;5113758;28;21009;-63
2024/04/03 05:06:43;;;;;;;4.43;3.20;;;10.70;99.90;;;;;;5113682;28;20612;-62
2024/04/03 05:09:10;;;;;;;4.00;3.67;;;10.70;99.90;;;;;;5113562;28;20481;-63
2024/04/03 05:11:35;;;;;;;5.73;3.93;;;10.80;99.90;;;;;;5114040;28;20202;-63
2024/04/03 05:14:02;;;;;;;4.70;4.20;;;10.90;99.90;;;;;;5113638;28;20449;-62
2024/04/03 05:16:29;;;;;;;3.83;3.53;;;11.00;99.90;;;;;;5113462;28;20187;-63
2024/04/03 05:18:55;;;;;;;3.93;3.63;;;11.10;99.90;;;;;;5113445;28;20963;-63
2024/04/03 05:21:22;;;;;;;4.37;3.10;;;11.00;99.90;;;;;;5113390;28;20911;-63
2024/04/03 05:23:49;;;;;;;5.33;2.80;;;11.00;99.90;;;;;;5113361;28;21001;-62
2024/04/03 05:26:16;;;;;;;3.73;2.63;;;11.00;99.90;;;;;;5113609;28;20477;-63
2024/04/03 05:28:43;;;;;;;3.20;2.90;;;10.90;99.90;;;;;;5113522;28;20511;-63
2024/04/03 05:31:11;;;;;;;3.90;3.23;;;10.90;99.90;;;;;;5113369;28;20452;-63
2024/04/03 05:33:38;;;;;;;4.63;2.50;;;10.90;99.90;;;;;;5113393;28;20454;-63
2024/04/03 05:36:05;;;;;;;4.50;2.90;;;10.90;99.90;;;;;;5113262;28;20502;-63
2024/04/03 05:38:34;;;;;;;7.23;4.03;;;10.80;99.90;;;;;;5113459;28;20870;-63
2024/04/03 05:41:00;;;;;;;3.53;3.10;;;10.90;99.90;;;;;;5113266;28;20840;-63
2024/04/03 05:43:27;;;;;;;8.53;3.20;;;11.00;99.90;;;;;;5113306;28;20863;-63
2024/04/03 05:45:55;;;;;;;4.57;4.17;;;11.00;99.90;;;;;;5113208;28;21018;-63
2024/04/03 05:48:22;;;;;;;6.23;4.10;;;11.10;99.90;;;;;;5113287;28;20963;-63
2024/04/03 05:50:47;;;;;;;6.97;4.40;;;11.10;99.90;;;;;;5113074;28;20952;-62
2024/04/03 05:53:14;;;;;;;4.60;3.37;;;11.20;99.90;;;;;;5113323;28;20473;-63
2024/04/03 05:55:41;;;;;;;5.40;3.63;;;11.30;99.90;;;;;;5113151;28;20444;-63
2024/04/03 05:58:07;;;;;;;8.40;3.90;;;11.30;99.90;;;;;;5113150;28;20507;-63
2024/04/03 06:00:33;;;;;;;6.17;4.13;;;11.40;99.90;;;;;;5116059;28;20480;-63
2024/04/03 06:02:59;;;;;;;6.97;3.97;;;11.40;99.90;;;;;;5116992;28;20532;-63
2024/04/03 06:05:25;;;;;;;6.03;3.97;;;11.40;99.90;;;;;;5117210;28;20199;-63
2024/04/03 06:07:53;;;;;;;3.73;2.97;;;11.40;99.90;;;;;;5117163;28;20457;-63
2024/04/03 06:10:19;;;;;;;5.23;3.40;;;11.50;99.90;;;;;;5117116;28;20237;-63
2024/04/03 06:12:47;;;;;;;11.60;3.53;;;11.40;99.90;;;;;;5117087;28;20454;-63
2024/04/03 06:15:12;;;;;;;4.20;2.70;;;11.40;99.90;;;;;;5117022;28;20445;-63
2024/04/03 06:17:39;;;;;;;5.27;3.17;;;11.40;99.90;;;;;;5116698;28;20556;-63
2024/04/03 06:20:05;;;;;;;3.73;2.57;;;11.50;99.90;;;;;;5117021;28;20331;-63
2024/04/03 06:22:31;;;;;;;3.57;3.23;;;11.50;99.90;;;;;;5116949;28;20502;-63
2024/04/03 06:24:57;;;;;;;3.20;2.90;;;11.50;99.90;;;;;;5116798;28;20484;-63
2024/04/03 06:27:24;;;;;;;5.93;2.90;;;11.50;99.90;;;;;;5116796;28;20481;-63
2024/04/03 06:29:51;;;;;;;4.43;2.90;;;11.50;99.90;;;;;;5116679;28;20196;-63
2024/04/03 06:32:17;;;;;;;4.53;3.07;;;11.60;99.90;;;;;;5116493;28;20514;-63
2024/04/03 06:34:43;;;;;;;5.00;3.23;;;11.70;99.90;;;;;;5116941;28;20448;-63
2024/04/03 06:37:09;;;;;;;2.77;2.50;;;11.80;99.90;;;;;;5116646;28;20548;-63
2024/04/03 06:39:35;;;;;;;5.13;2.40;;;11.90;99.90;;;;;;5116792;28;20284;-63
2024/04/03 06:42:01;;;;;;;3.03;2.77;;;12.00;99.90;;;;;;5116434;28;20560;-63
2024/04/03 06:44:27;;;;;;;3.40;3.10;;;12.00;99.90;;;;;;5116295;28;20658;-62
2024/04/03 06:47:00;;;;;;;5.20;3.30;;;12.00;99.90;;;;;;5115982;28;20568;-63
2024/04/03 06:49:27;;;;;;;3.93;2.90;;;12.10;99.90;;;;;;5116550;28;20196;-63
2024/04/03 06:51:54;;;;;;;4.10;2.60;;;12.10;99.90;;;;;;5116284;28;20488;-63
2024/04/03 06:54:19;;;;;;;4.10;3.40;;;12.20;99.90;;;;;;5116244;28;20887;-63
2024/04/03 06:56:48;;;;;;;4.50;2.97;;;12.40;99.90;;;;;;5115607;28;20470;-63
2024/04/03 06:59:14;;;;;;;3.90;2.73;;;12.30;99.90;;;;;;5115594;28;20261;-63
2024/04/03 07:01:40;;;;;;;3.60;2.97;;;12.30;99.90;;;;;;5115499;28;20905;-63
2024/04/03 07:04:07;;;;;;;6.47;3.30;;;12.30;99.90;;;;;;5116034;28;20187;-62
2024/04/03 07:06:33;;;;;;;3.40;2.97;;;12.20;99.90;;;;;;5115922;28;20453;-63
2024/04/03 07:08:59;;;;;;;3.80;2.67;;;12.00;99.90;;;;;;5115677;28;20537;-62
2024/04/03 07:11:25;;;;;;;3.07;2.27;;;11.90;99.90;;;;;;5115415;28;20537;-63
2024/04/03 07:13:51;;;;;;;5.20;3.47;;;12.00;99.90;;;;;;5115464;27;20277;-63
2024/04/03 07:16:18;;;;;;;3.00;2.73;;;12.00;99.90;;;;;;5115838;27;20887;-66
2024/04/03 07:18:44;;;;;;;4.50;2.83;;;12.00;99.90;;;;;;5115846;28;20445;-65
2024/04/03 07:21:12;;;;;;;5.80;2.63;;;12.10;99.90;;;;;;5115582;28;20483;-62
2024/04/03 07:23:37;;;;;;;3.53;2.40;;;12.10;99.90;;;;;;5115450;28;20929;-69
2024/04/03 07:26:04;;;;;;;3.43;2.93;;;12.00;99.90;;;;;;5116017;28;20464;-67
2024/04/03 07:28:29;;;;;;;2.73;2.53;;;12.00;99.90;;;;;;5115292;28;20199;-65
2024/04/03 07:30:57;;;;;;;2.80;2.60;;;11.90;99.90;;;;;;5115582;28;20536;-67
2024/04/03 07:33:23;;;;;;;6.43;3.10;;;12.00;99.90;;;;;;5115636;28;20192;-65
2024/04/03 07:35:50;;;;;;;4.40;2.80;;;12.10;99.90;;;;;;5115388;28;20450;-64
2024/04/03 07:38:19;;;;;;;5.67;2.67;;;12.20;99.90;;;;;;5115325;28;20188;-60
2024/04/03 07:40:45;;;;;;;5.70;2.43;;;12.20;99.90;;;;;;5115407;28;20483;-65
2024/04/03 07:43:11;;;;;;;4.20;3.00;;;12.30;99.90;;;;;;5115002;28;20446;-66
2024/04/03 07:45:37;;;;;;;2.40;2.20;;;12.30;99.90;;;;;;5115090;28;20861;-63
2024/04/03 07:48:03;;;;;;;3.63;2.30;;;12.40;99.90;;;;;;5115039;28;20184;-66
2024/04/03 07:50:31;;;;;;;3.40;2.70;;;12.40;99.90;;;;;;5115078;28;20466;-63
2024/04/03 07:52:56;;;;;;;2.60;2.37;;;12.50;99.90;;;;;;5114880;28;20460;-67
2024/04/03 07:55:24;;;;;;;3.20;2.60;;;12.40;99.90;;;;;;5114911;28;20524;-61
2024/04/03 07:57:49;;;;;;;3.53;2.60;;;12.40;99.90;;;;;;5115019;28;20187;-62
2024/04/03 08:00:16;;;;;;;2.83;2.30;;;12.40;99.90;;;;;;5114873;28;20557;-63
2024/04/03 08:02:43;;;;;;;6.37;2.83;;;12.40;99.90;;;;;;5114749;28;20188;-66
2024/04/03 08:05:11;;;;;;;3.63;2.53;;;12.50;99.90;;;;;;5114940;28;20476;-63
2024/04/03 08:07:37;;;;;;;3.10;2.80;;;12.60;99.90;;;;;;5114819;28;20806;-62
2024/04/03 08:10:04;;;;;;;3.70;2.50;;;12.70;99.90;;;;;;5114387;28;20933;-65
2024/04/03 08:12:32;;;;;;;4.27;2.90;;;12.80;99.90;;;;;;5115215;28;20463;-67
2024/04/03 08:14:59;;;;;;;3.10;2.50;;;13.00;99.90;;;;;;5114575;28;20453;-68
2024/04/03 08:17:24;;;;;;;5.03;2.70;;;13.10;99.90;;;;;;5114570;28;20450;-67
2024/04/03 08:19:51;;;;;;;3.93;2.97;;;13.20;99.90;;;;;;5114396;28;20460;-71
2024/04/03 08:22:17;;;;;;;3.67;3.10;;;13.20;99.90;;;;;;5113701;28;20221;-67
2024/04/03 08:24:43;;;;;;;3.57;3.20;;;13.30;99.90;;;;;;5114296;28;20532;-65
2024/04/03 08:27:10;;;;;;;5.77;3.60;;;13.40;99.90;;;;;;5114442;28;20199;-64
2024/04/03 08:29:42;;;;;;;3.37;3.07;;;13.50;99.90;;;;;;5114445;28;20498;-64
2024/04/03 08:32:08;;;;;;;5.57;4.23;;;13.50;99.90;;;;;;5114318;28;20441;-65
2024/04/03 08:34:34;;;;;;;4.30;4.00;;;13.50;99.90;;;;;;5114209;28;20843;-61
2024/04/03 08:37:00;;;;;;;3.70;3.50;;;13.50;99.90;;;;;;5114106;28;20282;-64
2024/04/03 08:39:26;;;;;;;4.30;3.90;;;13.50;99.90;;;;;;5113880;28;20449;-63
2024/04/03 08:41:56;;;;;;;5.97;4.57;;;13.50;99.90;;;;;;5114177;28;20570;-62
2024/04/03 08:44:23;;;;;;;4.90;4.40;;;13.40;99.90;;;;;;5114112;28;20532;-63
2024/04/03 08:46:54;;;;;;;6.43;4.47;;;13.50;99.90;;;;;;5113542;28;20561;-64
2024/04/03 08:49:21;;;;;;;3.60;3.03;;;13.50;99.90;;;;;;5113301;28;20504;-65
2024/04/03 08:52:01;;;;;;;3.27;3.00;;;13.60;99.90;;;;;;5113065;28;20500;-63
2024/04/03 08:54:29;;;;;;;3.83;3.57;;;13.40;99.90;;;;;;5113174;28;20462;-62
2024/04/03 08:56:54;;;;;;;3.33;3.03;;;13.60;99.90;;;;;;5113101;28;20531;-64
2024/04/03 08:59:21;;;;;;;3.17;2.97;;;13.70;99.90;;;;;;5112954;28;20541;-65
2024/04/03 09:01:48;;;;;;;3.50;2.90;;;13.60;99.90;;;;;;5112899;28;20867;-63
2024/04/03 09:04:17;;;;;;;4.23;2.87;;;13.70;99.90;;;;;;5112802;28;20454;-64
2024/04/03 09:06:43;;;;;;;3.73;3.07;;;13.60;99.90;;;;;;5112773;28;20442;-66
2024/04/03 09:09:17;;;;;;;3.23;2.70;;;13.60;99.90;;;;;;5112638;28;20501;-66
2024/04/03 09:11:43;;;;;;;3.43;3.20;;;13.50;99.90;;;;;;5112781;28;20550;-68
2024/04/03 09:14:10;;;;;;;3.47;3.17;;;13.50;99.90;;;;;;5112834;28;20540;-64
2024/04/03 09:16:35;;;;;;;2.77;2.57;;;13.50;99.90;;;;;;5112745;28;20206;-64
2024/04/03 09:19:06;;;;;;;5.07;3.20;;;13.60;99.90;;;;;;5112567;28;20553;-66
2024/04/03 09:21:33;;;;;;;3.73;2.87;;;13.70;99.90;;;;;;5112433;28;20220;-66
2024/04/03 09:23:59;;;;;;;4.93;3.27;;;13.80;99.90;;;;;;5112532;28;20462;-64
2024/04/03 09:26:25;;;;;;;4.60;2.70;;;13.90;99.90;;;;;;5112618;28;20445;-63
2024/04/03 09:28:59;;;;;;;4.10;3.13;;;13.90;99.90;;;;;;5112437;28;20457;-64
2024/04/03 09:31:24;;;;;;;3.67;3.47;;;14.20;99.90;;;;;;5112529;28;20445;-66
2024/04/03 09:33:52;;;;;;;3.77;3.23;;;14.20;99.90;;;;;;5111403;28;20452;-64
2024/04/03 09:36:18;;;;;;;2.77;2.57;;;14.20;99.90;;;;;;5112503;28;20192;-64
2024/04/03 09:38:46;;;;;;;2.83;2.57;;;14.30;99.90;;;;;;5112469;28;20453;-64
2024/04/03 09:41:12;;;;;;;2.90;2.50;;;14.50;99.90;;;;;;5112054;28;20209;-66
2024/04/03 09:43:42;;;;;;;6.00;2.80;;;14.80;99.90;;;;;;5112566;28;20952;-65
2024/04/03 09:46:11;;;;;;;4.30;2.73;;;14.80;99.90;;;;;;5078446;28;962039;-65
2024/04/03 09:48:39;;;;;;;3.10;2.67;;;14.90;99.90;;;;;;5113115;28;20224;-66
2024/04/03 09:51:05;;;;;;;3.70;2.90;;;15.00;99.90;;;;;;5113158;28;20532;-63
2024/04/03 09:53:32;;;;;;;3.43;3.13;;;15.10;99.90;;;;;;5113203;28;20546;-66
2024/04/03 09:55:59;;;;;;;4.97;3.17;;;15.10;99.90;;;;;;5112949;28;20278;-64
2024/04/03 09:58:27;;;;;;;3.47;3.23;;;15.40;99.90;;;;;;5112966;28;20457;-65
2024/04/03 10:00:54;;;;;;;4.20;3.70;;;15.00;99.90;;;;;;5112895;28;20479;-66
2024/04/03 10:03:23;;;;;;;4.37;2.60;;;15.00;99.90;;;;;;5113065;28;20451;-66
2024/04/03 10:05:58;;;;;;;4.90;3.43;;;15.00;99.90;;;;;;5112963;28;20458;-66
2024/04/03 10:08:24;;;;;;;3.50;3.23;;;15.10;99.90;;;;;;5112925;28;20506;-66
2024/04/03 10:10:50;;;;;;;6.37;3.30;;;15.20;99.90;;;;;;5112808;28;20839;-62
2024/04/03 10:13:24;;;;;;;5.40;3.70;;;15.20;99.90;;;;;;5112780;28;20481;-62
2024/04/03 10:16:00;;;;;;;3.07;2.80;;;15.20;99.90;;;;;;5112900;28;20434;-63
2024/04/03 10:18:27;;;;;;;6.63;5.67;;;15.30;99.90;;;;;;5112764;28;20950;-62
2024/04/03 10:20:52;;;;;;;10.23;5.20;;;15.20;99.90;;;;;;5112688;28;20445;-62
2024/04/03 10:23:19;;;;;;;5.30;3.37;;;15.30;99.90;;;;;;5112780;28;20545;-62
2024/04/03 10:25:45;;;;;;;6.00;3.43;;;15.30;99.90;;;;;;5112674;28;20300;-63
2024/04/03 10:28:12;;;;;;;7.10;2.83;;;15.40;99.90;;;;;;5112864;28;20488;-65
2024/04/03 10:30:39;;;;;;;7.10;3.17;;;15.50;99.90;;;;;;5112755;28;20482;-66
2024/04/03 10:33:06;;;;;;;2.87;2.60;;;15.60;99.90;;;;;;5113099;28;20452;-66
2024/04/03 10:35:32;;;;;;;3.47;2.80;;;15.50;99.90;;;;;;5112639;28;20495;-66
2024/04/03 10:37:58;;;;;;;5.67;2.90;;;15.70;99.90;;;;;;5112495;28;20456;-68
2024/04/03 10:40:25;;;;;;;4.60;2.90;;;15.80;99.90;;;;;;5113184;28;20186;-66
2024/04/03 10:42:51;;;;;;;8.23;3.20;;;15.80;99.90;;;;;;5112469;28;20484;-65
2024/04/03 10:45:17;;;;;;;3.73;3.40;;;15.90;99.90;;;;;;5113493;28;20870;-65
2024/04/03 10:47:47;;;;;;;3.83;2.93;;;16.20;99.90;;;;;;5115607;28;21059;-65
2024/04/03 10:50:13;;;;;;;3.67;2.70;;;15.90;99.90;;;;;;5116041;28;20445;-64
2024/04/03 10:52:39;;;;;;;4.50;2.90;;;16.00;99.90;;;;;;5116303;28;20826;-65
2024/04/03 10:55:05;;;;;;;5.30;3.10;;;16.20;99.90;;;;;;5115986;28;20195;-66
2024/04/03 10:57:32;;;;;;;4.70;3.10;;;16.10;99.90;;;;;;5116405;28;20552;-65
2024/04/03 10:59:58;;;;;;;4.30;2.83;;;16.30;99.90;;;;;;5116180;28;20688;-65
2024/04/03 11:02:27;;;;;;;4.33;2.77;;;16.40;99.90;;;;;;5116091;28;20576;-66
2024/04/03 11:04:54;;;;;;;3.50;3.00;;;16.40;99.90;;;;;;5115872;28;20536;-62
2024/04/03 11:07:20;;;;;;;4.63;2.30;;;16.40;99.90;;;;;;5115592;28;20456;-65
2024/04/03 11:09:46;;;;;;;3.07;2.77;;;16.30;99.90;;;;;;5115967;28;20858;-64
2024/04/03 11:12:13;;;;;;;5.30;3.17;;;16.10;99.90;;;;;;5115802;28;20451;-64
2024/04/03 11:14:39;;;;;;;2.80;2.70;;;16.00;99.90;;;;;;5115704;28;20186;-62
2024/04/03 11:17:07;;;;;;;3.73;2.57;;;15.90;99.90;;;;;;5115642;28;20465;-63
2024/04/03 11:19:33;;;;;;;3.90;2.40;;;15.70;99.90;;;;;;5115306;28;20183;-62
2024/04/03 11:22:01;;;;;;;4.60;2.27;;;15.60;99.90;;;;;;5115654;28;20484;-62
2024/04/03 11:24:27;;;;;;;4.17;2.30;;;15.50;99.90;;;;;;5115684;28;20544;-67
2024/04/03 11:26:53;;;;;;;3.63;2.93;;;15.50;99.90;;;;;;5115592;28;20547;-65
2024/04/03 11:29:27;;;;;;;4.17;3.47;;;15.50;99.90;;;;;;5115507;28;20194;-64
2024/04/03 11:31:54;;;;;;;4.03;2.80;;;15.30;99.90;;;;;;5115323;28;20974;-66
2024/04/03 11:34:19;;;;;;;2.80;2.60;;;15.40;99.90;;;;;;5115322;28;20456;-66
2024/04/03 11:36:46;;;;;;;3.67;2.93;;;15.40;99.90;;;;;;5115383;28;20904;-66
2024/04/03 11:39:17;;;;;;;3.20;2.90;;;15.40;99.90;;;;;;5115493;28;20241;-66
2024/04/03 11:41:44;;;;;;;4.47;3.10;;;15.40;99.90;;;;;;5115262;28;20494;-64
2024/04/03 11:44:10;;;;;;;3.67;2.73;;;15.20;99.90;;;;;;5115151;28;20443;-68
2024/04/03 11:46:36;;;;;;;3.93;3.40;;;15.20;99.90;;;;;;5114894;28;21021;-68
2024/04/03 11:49:04;;;;;;;7.77;3.13;;;15.10;99.90;;;;;;5114883;28;20205;-68
2024/04/03 11:51:30;;;;;;;2.77;2.67;;;15.10;99.90;;;;;;5114907;28;20467;-71
2024/04/03 11:53:56;;;;;;;7.53;4.17;;;15.20;99.90;;;;;;5114751;28;20447;-66
2024/04/03 11:56:25;;;;;;;5.23;3.87;;;15.30;99.90;;;;;;5114180;28;20558;-66
2024/04/03 11:58:50;;;;;;;5.10;3.63;;;15.30;99.90;;;;;;5114566;28;20195;-66
2024/04/03 12:01:17;;;;;;;4.47;3.00;;;15.30;99.90;;;;;;5114640;28;20473;-66
2024/04/03 12:03:42;;;;;;;3.03;2.60;;;15.20;99.90;;;;;;5114869;28;20619;-67
2024/04/03 12:06:09;;;;;;;6.40;3.60;;;15.30;99.90;;;;;;5114539;28;20551;-65
2024/04/03 12:08:36;;;;;;;5.07;3.67;;;15.30;99.90;;;;;;5114754;28;20282;-68
2024/04/03 12:11:02;;;;;;;3.83;3.10;;;15.20;99.90;;;;;;5114690;28;20552;-67
2024/04/03 12:13:29;;;;;;;7.60;3.63;;;15.20;99.90;;;;;;5114619;28;20534;-68
2024/04/03 12:15:56;;;;;;;4.73;3.83;;;15.20;99.90;;;;;;5114510;28;20535;-69
2024/04/03 12:18:24;;;;;;;4.97;3.13;;;15.10;99.90;;;;;;5114630;28;20441;-71
2024/04/03 12:20:51;;;;;;;6.67;3.80;;;15.00;99.90;;;;;;5114609;28;20457;-67
2024/04/03 12:23:17;;;;;;;5.67;3.63;;;14.90;99.90;;;;;;5114372;28;20483;-68
2024/04/03 12:25:44;;;;;;;6.90;3.77;;;14.90;99.90;;;;;;5114315;28;21110;-67
2024/04/03 12:28:09;;;;;;;5.07;4.20;;;14.90;99.90;;;;;;5114193;28;20466;-67
2024/04/03 12:30:37;;;;;;;5.73;3.87;;;14.90;99.90;;;;;;5114278;28;20542;-67
2024/04/03 12:33:03;;;;;;;6.50;3.60;;;15.00;99.90;;;;;;5114162;28;20195;-71
2024/04/03 12:35:30;;;;;;;7.90;5.33;;;15.00;99.90;;;;;;5114095;28;20540;-67
2024/04/03 12:37:57;;;;;;;7.47;4.67;;;15.10;99.90;;;;;;5114149;28;20190;-67
2024/04/03 12:40:24;;;;;;;4.73;4.20;;;15.20;99.90;;;;;;5114107;28;20459;-69
2024/04/03 12:42:50;;;;;;;8.10;4.60;;;15.30;99.90;;;;;;5113558;28;21063;-70
2024/04/03 12:45:17;;;;;;;5.73;4.20;;;15.30;99.90;;;;;;5113803;28;20449;-63